sensor_id;sensor_type;location;lat;lon;timestamp;P1;durP1;ratioP1;P2;durP2;ratioP2
79779;SDS011;69258;52.050;10.334;2023-09-30T00:03:09;4.97;;;2.77;;
79779;SDS011;69258;52.050;10.334;2023-09-30T00:18:12;5.23;;;2.87;;
79779;SDS011;69258;52.050;10.334;2023-09-30T00:33:15;5.63;;;2.97;;
79779;SDS011;69258;52.050;10.334;2023-09-30T00:48:18;5.47;;;3.17;;
79779;SDS011;69258;52.050;10.334;2023-09-30T01:03:21;4.27;;;2.90;;
79779;SDS011;69258;52.050;10.334;2023-09-30T01:18:25;5.20;;;3.33;;
79779;SDS011;69258;52.050;10.334;2023-09-30T01:33:28;4.27;;;3.00;;
79779;SDS011;69258;52.050;10.334;2023-09-30T01:48:29;3.57;;;2.73;;
79779;SDS011;69258;52.050;10.334;2023-09-30T02:03:32;5.80;;;3.37;;
79779;SDS011;69258;52.050;10.334;2023-09-30T02:18:35;6.20;;;3.00;;
79779;SDS011;69258;52.050;10.334;2023-09-30T02:33:37;7.00;;;3.20;;
79779;SDS011;69258;52.050;10.334;2023-09-30T02:48:39;4.90;;;3.40;;
79779;SDS011;69258;52.050;10.334;2023-09-30T03:03:42;6.80;;;3.50;;
79779;SDS011;69258;52.050;10.334;2023-09-30T03:18:45;5.93;;;3.27;;
79779;SDS011;69258;52.050;10.334;2023-09-30T03:33:51;4.93;;;3.00;;
79779;SDS011;69258;52.050;10.334;2023-09-30T03:48:54;5.20;;;3.20;;
79779;SDS011;69258;52.050;10.334;2023-09-30T04:03:57;4.97;;;3.00;;
79779;SDS011;69258;52.050;10.334;2023-09-30T04:19:00;6.07;;;3.37;;
79779;SDS011;69258;52.050;10.334;2023-09-30T04:34:03;5.43;;;3.23;;
79779;SDS011;69258;52.050;10.334;2023-09-30T04:49:09;5.43;;;3.40;;
79779;SDS011;69258;52.050;10.334;2023-09-30T05:04:11;6.90;;;3.30;;
79779;SDS011;69258;52.050;10.334;2023-09-30T05:19:14;5.30;;;3.40;;
79779;SDS011;69258;52.050;10.334;2023-09-30T05:34:17;9.63;;;3.40;;
79779;SDS011;69258;52.050;10.334;2023-09-30T05:49:20;8.30;;;3.37;;
79779;SDS011;69258;52.050;10.334;2023-09-30T06:04:21;9.03;;;3.90;;
79779;SDS011;69258;52.050;10.334;2023-09-30T06:19:23;6.60;;;3.73;;
79779;SDS011;69258;52.050;10.334;2023-09-30T06:34:26;6.93;;;3.53;;
79779;SDS011;69258;52.050;10.334;2023-09-30T06:49:35;10.13;;;4.10;;
79779;SDS011;69258;52.050;10.334;2023-09-30T07:04:38;7.47;;;4.00;;
79779;SDS011;69258;52.050;10.334;2023-09-30T07:19:41;7.30;;;3.70;;
79779;SDS011;69258;52.050;10.334;2023-09-30T07:34:44;6.67;;;3.70;;
79779;SDS011;69258;52.050;10.334;2023-09-30T07:49:47;6.13;;;3.27;;
79779;SDS011;69258;52.050;10.334;2023-09-30T08:04:49;7.17;;;3.40;;
79779;SDS011;69258;52.050;10.334;2023-09-30T08:19:52;5.87;;;3.43;;
79779;SDS011;69258;52.050;10.334;2023-09-30T08:34:55;8.13;;;3.37;;
79779;SDS011;69258;52.050;10.334;2023-09-30T08:49:56;10.33;;;4.10;;
79779;SDS011;69258;52.050;10.334;2023-09-30T09:05:02;8.57;;;3.77;;
79779;SDS011;69258;52.050;10.334;2023-09-30T09:20:04;15.83;;;4.73;;
79779;SDS011;69258;52.050;10.334;2023-09-30T09:35:09;10.20;;;3.80;;
79779;SDS011;69258;52.050;10.334;2023-09-30T09:50:11;8.83;;;4.17;;
79779;SDS011;69258;52.050;10.334;2023-09-30T10:05:16;9.27;;;3.67;;
79779;SDS011;69258;52.050;10.334;2023-09-30T10:20:25;11.00;;;3.47;;
79779;SDS011;69258;52.050;10.334;2023-09-30T10:50:53;23.57;;;8.20;;
79779;SDS011;69258;52.050;10.334;2023-09-30T11:05:57;19.47;;;7.50;;
79779;SDS011;69258;52.050;10.334;2023-09-30T11:21:12;15.47;;;6.23;;
79779;SDS011;69258;52.050;10.334;2023-09-30T11:36:14;18.73;;;6.50;;
79779;SDS011;69258;52.050;10.334;2023-09-30T11:51:17;13.87;;;6.33;;
79779;SDS011;69258;52.050;10.334;2023-09-30T12:06:20;16.10;;;5.80;;
79779;SDS011;69258;52.050;10.334;2023-09-30T12:21:22;13.33;;;5.60;;
79779;SDS011;69258;52.050;10.334;2023-09-30T12:36:25;12.53;;;5.27;;
79779;SDS011;69258;52.050;10.334;2023-09-30T12:51:28;11.17;;;4.73;;
79779;SDS011;69258;52.050;10.334;2023-09-30T13:06:30;11.63;;;4.80;;
79779;SDS011;69258;52.050;10.334;2023-09-30T13:21:32;9.30;;;3.87;;
79779;SDS011;69258;52.050;10.334;2023-09-30T13:36:34;7.80;;;3.73;;
79779;SDS011;69258;52.050;10.334;2023-09-30T13:51:37;8.10;;;3.50;;
79779;SDS011;69258;52.050;10.334;2023-09-30T14:06:39;6.87;;;3.30;;
79779;SDS011;69258;52.050;10.334;2023-09-30T14:21:41;5.20;;;2.67;;
79779;SDS011;69258;52.050;10.334;2023-09-30T14:36:44;5.97;;;2.93;;
79779;SDS011;69258;52.050;10.334;2023-09-30T14:51:46;5.10;;;2.80;;
79779;SDS011;69258;52.050;10.334;2023-09-30T15:06:49;5.90;;;2.80;;
79779;SDS011;69258;52.050;10.334;2023-09-30T15:21:52;4.30;;;2.73;;
79779;SDS011;69258;52.050;10.334;2023-09-30T15:36:55;4.83;;;3.00;;
79779;SDS011;69258;52.050;10.334;2023-09-30T15:51:57;4.77;;;2.60;;
79779;SDS011;69258;52.050;10.334;2023-09-30T16:06:59;4.83;;;2.53;;
79779;SDS011;69258;52.050;10.334;2023-09-30T16:22:02;3.43;;;2.67;;
79779;SDS011;69258;52.050;10.334;2023-09-30T16:37:05;2.97;;;2.30;;
79779;SDS011;69258;52.050;10.334;2023-09-30T16:52:08;4.57;;;2.50;;
79779;SDS011;69258;52.050;10.334;2023-09-30T17:07:10;5.80;;;2.90;;
79779;SDS011;69258;52.050;10.334;2023-09-30T17:22:13;4.97;;;2.80;;
79779;SDS011;69258;52.050;10.334;2023-09-30T17:37:16;3.20;;;2.50;;
79779;SDS011;69258;52.050;10.334;2023-09-30T17:52:19;5.27;;;2.83;;
79779;SDS011;69258;52.050;10.334;2023-09-30T18:07:21;4.67;;;2.97;;
79779;SDS011;69258;52.050;10.334;2023-09-30T18:22:24;4.13;;;2.60;;
79779;SDS011;69258;52.050;10.334;2023-09-30T18:37:27;3.67;;;2.23;;
79779;SDS011;69258;52.050;10.334;2023-09-30T18:52:30;5.10;;;2.73;;
79779;SDS011;69258;52.050;10.334;2023-09-30T19:07:32;5.70;;;2.50;;
79779;SDS011;69258;52.050;10.334;2023-09-30T19:22:35;4.67;;;2.50;;
79779;SDS011;69258;52.050;10.334;2023-09-30T19:37:38;4.27;;;2.30;;
79779;SDS011;69258;52.050;10.334;2023-09-30T19:52:41;3.23;;;2.20;;
79779;SDS011;69258;52.050;10.334;2023-09-30T20:07:46;3.00;;;2.43;;
79779;SDS011;69258;52.050;10.334;2023-09-30T20:22:49;3.50;;;2.50;;
79779;SDS011;69258;52.050;10.334;2023-09-30T20:37:51;4.30;;;2.40;;
79779;SDS011;69258;52.050;10.334;2023-09-30T20:52:54;3.13;;;2.30;;
79779;SDS011;69258;52.050;10.334;2023-09-30T21:08:00;3.20;;;2.23;;
79779;SDS011;69258;52.050;10.334;2023-09-30T21:23:03;3.97;;;2.50;;
79779;SDS011;69258;52.050;10.334;2023-09-30T21:38:06;5.70;;;2.23;;
79779;SDS011;69258;52.050;10.334;2023-09-30T21:53:08;2.87;;;2.10;;
79779;SDS011;69258;52.050;10.334;2023-09-30T22:08:11;3.63;;;2.50;;
79779;SDS011;69258;52.050;10.334;2023-09-30T22:23:13;4.03;;;2.10;;
79779;SDS011;69258;52.050;10.334;2023-09-30T22:38:15;4.33;;;2.80;;
79779;SDS011;69258;52.050;10.334;2023-09-30T22:53:18;3.20;;;2.30;;
79779;SDS011;69258;52.050;10.334;2023-09-30T23:08:20;3.73;;;2.30;;
79779;SDS011;69258;52.050;10.334;2023-09-30T23:23:22;5.07;;;2.30;;
79779;SDS011;69258;52.050;10.334;2023-09-30T23:38:24;3.03;;;2.40;;
79779;SDS011;69258;52.050;10.334;2023-09-30T23:53:26;3.13;;;2.13;;
